createdAt,value
2022-12-08T00:01:21.405Z,3.97
2022-12-08T00:03:48.662Z,4.40
2022-12-08T00:06:49.012Z,4.15
2022-12-08T00:09:22.013Z,4.13
2022-12-08T00:12:08.713Z,4.05
2022-12-08T00:14:37.669Z,4.22
2022-12-08T00:17:06.443Z,3.90
2022-12-08T00:19:33.414Z,5.13
2022-12-08T00:22:00.250Z,4.22
2022-12-08T00:24:32.110Z,4.65
2022-12-08T00:26:58.639Z,4.72
2022-12-08T00:29:25.615Z,4.20
2022-12-08T00:34:19.138Z,4.13
2022-12-08T00:39:13.903Z,4.10
2022-12-08T00:41:59.036Z,3.97
2022-12-08T00:44:25.971Z,4.70
2022-12-08T00:46:52.680Z,4.25
2022-12-08T00:49:19.413Z,3.85
2022-12-08T00:51:46.370Z,4.43
2022-12-08T00:54:13.207Z,4.88
2022-12-08T00:56:39.855Z,5.18
2022-12-08T00:59:07.647Z,4.47
2022-12-08T01:01:35.208Z,4.20
2022-12-08T01:04:05.889Z,4.50
2022-12-08T01:06:34.456Z,4.50
2022-12-08T01:09:02.060Z,4.35
2022-12-08T01:11:28.589Z,3.85
2022-12-08T01:13:55.312Z,4.65
2022-12-08T01:16:24.394Z,4.50
2022-12-08T01:18:51.331Z,3.97
2022-12-08T01:21:18.289Z,3.80
2022-12-08T01:26:13.793Z,5.15
2022-12-08T01:28:41.389Z,4.88
2022-12-08T01:31:13.389Z,4.38
2022-12-08T01:33:40.486Z,3.72
2022-12-08T01:38:33.942Z,4.47
2022-12-08T01:41:00.526Z,4.03
2022-12-08T01:43:57.376Z,5.07
2022-12-08T01:46:25.076Z,4.07
2022-12-08T01:48:56.853Z,4.25
2022-12-08T01:51:23.784Z,4.82
2022-12-08T01:53:50.804Z,4.70
2022-12-08T01:59:07.382Z,4.78
2022-12-08T02:01:33.988Z,4.70
2022-12-08T02:04:03.130Z,4.90
2022-12-08T02:06:34.949Z,5.03
2022-12-08T02:09:03.272Z,5.07
2022-12-08T02:11:29.978Z,5.97
2022-12-08T02:13:58.986Z,5.63
2022-12-08T02:16:58.146Z,5.78
2022-12-08T02:19:43.046Z,6.50
2022-12-08T02:22:36.110Z,6.38
2022-12-08T02:25:08.750Z,6.75
2022-12-08T02:28:06.237Z,6.15
2022-12-08T02:30:50.343Z,7.55
2022-12-08T02:33:29.357Z,5.82
2022-12-08T02:36:09.826Z,6.28
2022-12-08T02:38:36.334Z,6.05
2022-12-08T02:41:17.787Z,6.18
2022-12-08T02:44:04.146Z,7.10
2022-12-08T02:46:43.317Z,6.68
2022-12-08T02:49:10.166Z,6.28
2022-12-08T02:51:36.677Z,6.40
2022-12-08T02:54:03.869Z,6.60
2022-12-08T02:56:39.090Z,6.55
2022-12-08T02:59:24.156Z,5.60
2022-12-08T03:02:13.721Z,7.57
2022-12-08T03:05:06.534Z,6.70
2022-12-08T03:07:44.898Z,7.18
2022-12-08T03:10:34.185Z,6.55
2022-12-08T03:13:23.129Z,6.35
2022-12-08T03:15:51.177Z,6.70
2022-12-08T03:18:21.321Z,7.22
2022-12-08T03:20:49.204Z,7.93
2022-12-08T03:23:17.636Z,7.43
2022-12-08T03:25:52.154Z,7.22
2022-12-08T03:28:18.922Z,7.68
2022-12-08T03:30:49.829Z,7.60
2022-12-08T03:33:23.285Z,7.38
2022-12-08T03:35:51.252Z,7.28
2022-12-08T03:38:18.390Z,7.53
2022-12-08T03:41:05.613Z,7.65
2022-12-08T03:43:32.218Z,7.88
2022-12-08T03:45:58.905Z,7.43
2022-12-08T03:48:25.488Z,8.48
2022-12-08T03:50:52.018Z,7.20
2022-12-08T03:53:18.563Z,7.93
2022-12-08T03:55:45.170Z,7.43
2022-12-08T03:58:11.754Z,8.15
2022-12-08T04:00:38.311Z,8.43
2022-12-08T04:03:06.483Z,8.20
2022-12-08T04:05:33.091Z,7.80
2022-12-08T04:07:59.683Z,8.63
2022-12-08T04:10:26.253Z,8.38
2022-12-08T04:12:53.254Z,8.57
2022-12-08T04:17:46.291Z,8.15
2022-12-08T04:20:12.929Z,8.52
2022-12-08T04:22:39.570Z,7.43
2022-12-08T04:25:07.175Z,8.02
2022-12-08T04:27:33.708Z,7.35
2022-12-08T04:30:00.264Z,7.68
2022-12-08T04:32:26.804Z,8.63
2022-12-08T04:34:53.335Z,7.97
2022-12-08T04:37:19.917Z,8.32
2022-12-08T04:39:46.510Z,7.68
2022-12-08T04:42:13.098Z,8.52
2022-12-08T04:44:39.645Z,8.52
2022-12-08T04:47:06.251Z,7.78
2022-12-08T04:49:33.007Z,9.15
2022-12-08T04:51:59.643Z,8.98
2022-12-08T04:54:26.984Z,8.75
2022-12-08T04:56:53.778Z,8.70
2022-12-08T04:59:20.327Z,8.52
2022-12-08T05:01:46.982Z,6.72
2022-12-08T05:04:13.735Z,8.20
2022-12-08T05:06:40.275Z,9.40
2022-12-08T05:09:06.965Z,9.07
2022-12-08T05:11:33.529Z,9.30
2022-12-08T05:14:00.149Z,9.98
2022-12-08T05:16:26.767Z,9.63
2022-12-08T05:18:53.403Z,9.98
2022-12-08T05:21:19.970Z,8.45
2022-12-08T05:23:46.565Z,7.70
2022-12-08T05:26:13.134Z,8.60
2022-12-08T05:28:41.861Z,9.18
2022-12-08T05:31:09.957Z,9.25
2022-12-08T05:33:36.652Z,9.15
2022-12-08T05:36:03.588Z,8.77
2022-12-08T05:40:56.531Z,8.25
2022-12-08T05:43:23.200Z,9.20
2022-12-08T05:45:49.844Z,8.93
2022-12-08T05:48:16.799Z,9.93
2022-12-08T05:50:50.513Z,10.50
2022-12-08T05:53:18.515Z,11.30
2022-12-08T05:55:46.069Z,11.70
2022-12-08T05:58:15.205Z,11.82
2022-12-08T06:00:42.961Z,12.63
2022-12-08T06:03:12.089Z,10.65
2022-12-08T06:05:39.048Z,11.65
2022-12-08T06:08:05.869Z,12.23
2022-12-08T06:10:32.516Z,11.65
2022-12-08T06:12:59.159Z,11.90
2022-12-08T06:15:25.874Z,11.05
2022-12-08T06:17:52.484Z,10.57
2022-12-08T06:20:19.024Z,10.65
2022-12-08T06:22:45.848Z,10.77
2022-12-08T06:25:12.394Z,11.50
2022-12-08T06:27:38.981Z,10.45
2022-12-08T06:30:06.693Z,11.35
2022-12-08T06:32:33.494Z,10.90
2022-12-08T06:35:00.223Z,10.63
2022-12-08T06:37:26.791Z,10.90
2022-12-08T06:39:53.690Z,11.60
2022-12-08T06:42:38.647Z,10.63
2022-12-08T06:45:05.830Z,11.18
2022-12-08T06:47:32.368Z,10.73
2022-12-08T06:49:58.987Z,11.57
2022-12-08T06:52:25.663Z,10.88
2022-12-08T06:54:52.308Z,11.20
2022-12-08T06:57:18.818Z,12.63
2022-12-08T06:59:45.459Z,10.23
2022-12-08T07:02:11.981Z,11.27
2022-12-08T07:04:38.549Z,11.45
2022-12-08T07:07:05.161Z,10.80
2022-12-08T07:09:31.666Z,10.82
2022-12-08T07:11:58.258Z,11.20
2022-12-08T07:14:25.002Z,11.27
2022-12-08T07:16:52.319Z,11.32
2022-12-08T07:19:19.428Z,10.95
2022-12-08T07:24:12.470Z,10.32
2022-12-08T07:26:39.925Z,11.23
2022-12-08T07:29:06.488Z,9.77
2022-12-08T07:31:33.104Z,9.63
2022-12-08T07:33:59.674Z,10.05
2022-12-08T07:36:26.387Z,10.77
2022-12-08T07:38:53.791Z,9.63
2022-12-08T07:41:23.614Z,9.98
2022-12-08T07:43:51.102Z,10.38
2022-12-08T07:46:20.542Z,10.38
2022-12-08T07:48:47.615Z,9.60
2022-12-08T07:53:45.366Z,11.00
2022-12-08T07:56:15.510Z,11.18
2022-12-08T08:03:46.639Z,9.43
2022-12-08T08:06:13.175Z,10.32
2022-12-08T08:08:39.692Z,10.57
2022-12-08T08:11:15.765Z,10.18
2022-12-08T08:13:46.000Z,10.10
2022-12-08T08:16:15.776Z,10.93
2022-12-08T08:18:43.546Z,10.43
2022-12-08T08:21:43.239Z,10.90
2022-12-08T08:26:23.023Z,9.68
2022-12-08T08:28:50.164Z,8.23
2022-12-08T08:31:16.756Z,10.77
2022-12-08T08:33:43.239Z,10.68
2022-12-08T08:36:10.287Z,10.55
2022-12-08T08:38:42.841Z,12.25
2022-12-08T08:41:12.675Z,11.32
2022-12-08T08:43:39.619Z,11.45
2022-12-08T08:46:08.810Z,12.40
2022-12-08T08:48:35.795Z,11.18
2022-12-08T08:51:10.838Z,11.68
2022-12-08T08:53:37.725Z,10.85
2022-12-08T08:56:12.460Z,11.77
2022-12-08T08:58:39.293Z,9.63
2022-12-08T09:01:06.552Z,9.82
2022-12-08T09:03:33.604Z,10.25
2022-12-08T09:08:27.245Z,10.43
2022-12-08T09:10:54.662Z,9.52
2022-12-08T09:13:22.286Z,9.70
2022-12-08T09:15:49.118Z,9.57
2022-12-08T09:18:15.749Z,8.75
2022-12-08T09:20:42.467Z,8.75
2022-12-08T09:23:09.130Z,9.48
2022-12-08T09:25:35.651Z,11.15
2022-12-08T09:28:02.151Z,9.98
2022-12-08T09:30:28.679Z,9.85
2022-12-08T09:32:55.257Z,8.48
2022-12-08T09:35:21.797Z,9.30
2022-12-08T09:37:48.335Z,10.32
2022-12-08T09:40:18.765Z,11.35
2022-12-08T09:43:10.291Z,10.20
2022-12-08T09:45:39.670Z,9.65
2022-12-08T09:48:12.911Z,9.35
2022-12-08T09:50:53.676Z,12.25
2022-12-08T09:53:32.058Z,10.43
2022-12-08T09:56:08.749Z,10.77
2022-12-08T09:58:47.600Z,9.65
2022-12-08T10:01:14.689Z,10.98
2022-12-08T10:06:33.619Z,12.00
2022-12-08T10:09:12.811Z,9.63
2022-12-08T10:12:01.128Z,9.23
2022-12-08T10:14:33.718Z,8.05
2022-12-08T10:17:16.391Z,8.85
2022-12-08T10:19:43.991Z,9.00
2022-12-08T10:22:23.339Z,8.23
2022-12-08T10:25:00.921Z,7.57
2022-12-08T10:27:28.015Z,8.20
2022-12-08T10:32:23.749Z,7.97
2022-12-08T10:35:15.074Z,8.93
2022-12-08T10:37:41.756Z,8.35
2022-12-08T10:40:13.003Z,8.00
2022-12-08T10:42:46.988Z,8.82
2022-12-08T10:45:44.671Z,8.85
2022-12-08T10:48:24.277Z,9.13
2022-12-08T10:50:50.742Z,8.90
2022-12-08T10:53:26.185Z,8.85
2022-12-08T10:56:05.017Z,9.23
2022-12-08T10:58:42.505Z,9.40
2022-12-08T11:01:18.519Z,8.13
2022-12-08T11:03:45.071Z,8.63
2022-12-08T11:06:20.634Z,9.27
2022-12-08T11:08:56.580Z,9.23
2022-12-08T11:11:44.999Z,9.05
2022-12-08T11:14:22.771Z,8.57
2022-12-08T11:16:51.672Z,9.90
2022-12-08T11:19:19.856Z,9.77
2022-12-08T11:21:47.316Z,8.40
2022-12-08T11:24:26.396Z,8.77
2022-12-08T11:27:04.687Z,7.22
2022-12-08T11:29:33.868Z,7.22
2022-12-08T11:32:11.628Z,8.07
2022-12-08T11:34:44.045Z,7.03
2022-12-08T11:37:24.134Z,6.78
2022-12-08T11:39:55.345Z,6.80
2022-12-08T11:42:31.281Z,7.60
2022-12-08T11:45:00.334Z,6.93
2022-12-08T11:47:35.200Z,7.20
2022-12-08T11:50:26.709Z,7.35
2022-12-08T11:52:53.216Z,6.88
2022-12-08T11:55:37.335Z,7.57
2022-12-08T11:58:16.485Z,6.65
2022-12-08T12:00:43.072Z,5.60
2022-12-08T12:03:28.645Z,5.88
2022-12-08T12:09:17.806Z,5.80
2022-12-08T12:12:15.808Z,5.63
2022-12-08T12:15:10.263Z,7.38
2022-12-08T12:17:44.181Z,6.53
2022-12-08T12:20:28.903Z,6.32
2022-12-08T12:23:02.531Z,6.18
2022-12-08T12:25:29.808Z,7.07
2022-12-08T12:28:00.875Z,5.90
2022-12-08T12:30:36.045Z,5.47
2022-12-08T12:33:08.820Z,5.97
2022-12-08T12:35:42.636Z,5.90
2022-12-08T12:38:40.561Z,5.60
2022-12-08T12:41:08.849Z,5.10
2022-12-08T12:43:38.659Z,5.03
2022-12-08T12:46:23.389Z,6.07
2022-12-08T12:48:53.154Z,5.68
2022-12-08T12:51:39.334Z,5.53
2022-12-08T12:54:29.454Z,5.15
2022-12-08T12:57:20.762Z,6.43
2022-12-08T12:59:55.500Z,5.22
2022-12-08T13:02:32.088Z,4.65
2022-12-08T13:05:25.106Z,5.30
2022-12-08T13:08:07.216Z,4.80
2022-12-08T13:10:39.533Z,4.25
2022-12-08T13:13:18.125Z,4.53
2022-12-08T13:15:52.992Z,5.25
2022-12-08T13:18:42.607Z,5.13
2022-12-08T13:21:09.180Z,5.28
2022-12-08T13:23:38.608Z,5.00
2022-12-08T13:26:15.363Z,5.80
2022-12-08T13:29:01.304Z,5.00
2022-12-08T13:31:37.538Z,5.30
2022-12-08T13:34:16.981Z,5.97
2022-12-08T13:37:01.112Z,5.82
2022-12-08T13:39:41.019Z,6.00
2022-12-08T13:42:12.902Z,6.03
2022-12-08T13:47:59.557Z,5.45
2022-12-08T13:52:33.060Z,5.63
2022-12-08T13:57:00.768Z,5.78
2022-12-08T13:59:10.601Z,5.95
2022-12-08T14:01:44.869Z,6.38
2022-12-08T14:07:04.211Z,6.47
2022-12-08T14:09:36.780Z,6.25
2022-12-08T14:12:17.497Z,6.20
2022-12-08T14:15:02.712Z,6.22
2022-12-08T14:17:30.228Z,6.18
2022-12-08T14:20:12.122Z,6.22
2022-12-08T14:22:40.954Z,6.75
2022-12-08T14:25:13.940Z,6.50
2022-12-08T14:27:40.772Z,6.50
2022-12-08T14:30:14.160Z,6.38
2022-12-08T14:32:45.042Z,7.38
2022-12-08T14:35:22.300Z,6.72
2022-12-08T14:37:51.572Z,6.38
2022-12-08T14:40:22.801Z,5.53
2022-12-08T14:43:15.734Z,5.43
2022-12-08T14:45:42.127Z,5.13
2022-12-08T14:48:27.206Z,5.10
2022-12-08T14:51:06.038Z,6.30
2022-12-08T14:53:42.507Z,5.93
2022-12-08T14:56:22.145Z,5.53
2022-12-08T14:58:51.105Z,6.45
2022-12-08T15:01:23.415Z,5.90
2022-12-08T15:03:51.429Z,5.95
2022-12-08T15:06:21.468Z,6.03
2022-12-08T15:08:53.639Z,5.70
2022-12-08T15:11:23.168Z,5.78
2022-12-08T15:13:52.141Z,5.70
2022-12-08T15:16:45.014Z,6.32
2022-12-08T15:19:28.478Z,5.68
2022-12-08T15:21:58.324Z,5.95
2022-12-08T15:24:29.514Z,5.65
2022-12-08T15:26:56.225Z,5.03
2022-12-08T15:29:28.490Z,6.35
2022-12-08T15:32:01.261Z,5.25
2022-12-08T15:34:27.970Z,6.28
2022-12-08T15:36:55.256Z,6.93
2022-12-08T15:39:38.044Z,6.00
2022-12-08T15:42:10.924Z,6.68
2022-12-08T15:44:37.380Z,6.53
2022-12-08T15:47:04.352Z,7.13
2022-12-08T15:52:08.046Z,7.68
2022-12-08T15:54:37.862Z,6.22
2022-12-08T15:57:19.506Z,5.07
2022-12-08T16:02:22.620Z,8.07
2022-12-08T16:07:38.250Z,16.23
2022-12-08T16:10:06.873Z,27.90
2022-12-08T16:16:00.686Z,9.20
2022-12-08T16:18:31.560Z,10.25
2022-12-08T16:21:31.622Z,10.80
2022-12-08T16:23:45.480Z,11.57
2022-12-08T16:26:44.402Z,9.45
2022-12-08T16:29:05.929Z,6.95
2022-12-08T16:31:32.812Z,8.77
2022-12-08T16:36:25.697Z,6.70
2022-12-08T16:38:52.224Z,22.08
2022-12-08T16:41:37.649Z,11.18
2022-12-08T16:44:05.944Z,8.15
2022-12-08T16:46:34.795Z,6.18
2022-12-08T16:49:01.539Z,5.93
2022-12-08T16:51:28.032Z,6.18
2022-12-08T16:53:56.864Z,7.05
2022-12-08T16:56:30.414Z,6.70
2022-12-08T16:58:59.079Z,5.85
2022-12-08T17:01:25.670Z,5.72
2022-12-08T17:04:22.330Z,6.57
2022-12-08T17:06:38.638Z,6.88
2022-12-08T17:09:05.360Z,6.97
2022-12-08T17:11:37.446Z,5.47
2022-12-08T17:14:05.867Z,5.60
2022-12-08T17:16:32.480Z,7.68
2022-12-08T17:18:59.043Z,7.25
2022-12-08T17:21:25.715Z,6.10
2022-12-08T17:23:52.225Z,5.85
2022-12-08T17:26:18.804Z,5.35
2022-12-08T17:29:00.526Z,5.63
2022-12-08T17:31:30.170Z,6.05
2022-12-08T17:34:05.929Z,6.10
2022-12-08T17:36:32.708Z,5.90
2022-12-08T17:39:00.504Z,5.80
2022-12-08T17:41:28.184Z,5.30
2022-12-08T17:43:54.736Z,6.15
2022-12-08T17:46:22.115Z,6.20
2022-12-08T17:48:49.348Z,6.05
2022-12-08T17:51:16.344Z,6.60
2022-12-08T17:56:17.497Z,7.07
2022-12-08T17:58:45.588Z,6.53
2022-12-08T18:01:13.352Z,5.80
2022-12-08T18:03:40.969Z,5.80
2022-12-08T18:06:10.345Z,6.03
2022-12-08T18:08:37.344Z,5.60
2022-12-08T18:13:31.734Z,7.07
2022-12-08T18:18:24.572Z,6.80
2022-12-08T18:20:51.090Z,6.40
2022-12-08T18:23:18.036Z,6.38
2022-12-08T18:25:47.285Z,6.20
2022-12-08T18:28:13.795Z,6.75
2022-12-08T18:30:40.591Z,7.10
2022-12-08T18:33:07.635Z,6.90
2022-12-08T18:38:00.715Z,7.70
2022-12-08T18:40:30.614Z,6.50
2022-12-08T18:42:57.100Z,6.93
2022-12-08T18:45:23.698Z,6.53
2022-12-08T18:47:52.887Z,6.90
2022-12-08T18:50:19.357Z,6.75
2022-12-08T18:52:46.685Z,6.65
2022-12-08T18:55:14.108Z,6.38
2022-12-08T18:57:43.206Z,5.43
2022-12-08T19:00:15.851Z,6.03
2022-12-08T19:02:42.582Z,6.47
2022-12-08T19:05:11.301Z,6.18
2022-12-08T19:07:38.261Z,6.57
2022-12-08T19:12:32.939Z,6.75
2022-12-08T19:14:59.415Z,8.27
2022-12-08T19:17:25.970Z,8.05
2022-12-08T19:19:52.481Z,7.90
2022-12-08T19:22:18.972Z,6.60
2022-12-08T19:24:45.743Z,7.20
2022-12-08T19:27:12.279Z,6.97
2022-12-08T19:29:38.761Z,6.43
2022-12-08T19:32:05.261Z,5.90
2022-12-08T19:34:31.870Z,6.97
2022-12-08T19:36:58.380Z,7.15
2022-12-08T19:39:43.384Z,6.13
2022-12-08T19:42:37.424Z,6.28
2022-12-08T19:45:19.899Z,6.55
2022-12-08T19:47:46.526Z,5.85
2022-12-08T19:50:33.130Z,7.00
2022-12-08T19:55:26.593Z,5.45
2022-12-08T20:02:47.336Z,5.57
2022-12-08T20:05:14.410Z,6.97
2022-12-08T20:10:14.305Z,6.03
2022-12-08T20:12:40.873Z,5.65
2022-12-08T20:15:10.214Z,5.38
2022-12-08T20:17:38.160Z,8.68
2022-12-08T20:20:07.703Z,7.07
2022-12-08T20:22:34.660Z,6.25
2022-12-08T20:25:01.550Z,6.32
2022-12-08T20:27:29.064Z,6.43
2022-12-08T20:29:55.691Z,6.43
2022-12-08T20:32:22.246Z,6.70
2022-12-08T20:34:48.973Z,7.07
2022-12-08T20:37:15.508Z,7.53
2022-12-08T20:39:41.963Z,7.60
2022-12-08T20:42:12.684Z,7.30
2022-12-08T20:44:43.343Z,7.75
2022-12-08T20:47:11.002Z,7.72
2022-12-08T20:49:38.124Z,7.72
2022-12-08T20:54:31.337Z,8.88
2022-12-08T20:56:57.866Z,9.00
2022-12-08T20:59:26.392Z,10.40
2022-12-08T21:01:54.004Z,10.00
2022-12-08T21:04:21.907Z,9.80
2022-12-08T21:06:49.661Z,10.35
2022-12-08T21:09:16.628Z,10.20
2022-12-08T21:16:36.597Z,9.23
2022-12-08T21:19:03.692Z,8.73
2022-12-08T21:21:30.312Z,9.70
2022-12-08T21:23:57.021Z,9.23
2022-12-08T21:26:26.079Z,10.18
2022-12-08T21:28:56.477Z,10.38
2022-12-08T21:31:23.574Z,10.48
2022-12-08T21:33:50.224Z,9.98
2022-12-08T21:36:19.377Z,9.73
2022-12-08T21:38:46.952Z,9.43
2022-12-08T21:41:16.308Z,9.63
2022-12-08T21:43:43.246Z,10.23
2022-12-08T21:48:43.872Z,9.75
2022-12-08T21:51:10.364Z,9.55
2022-12-08T21:53:37.082Z,10.15
2022-12-08T21:56:09.166Z,10.90
2022-12-08T21:58:36.012Z,9.70
2022-12-08T22:01:10.309Z,9.27
2022-12-08T22:03:39.194Z,9.40
2022-12-08T22:06:11.169Z,9.38
2022-12-08T22:08:38.350Z,9.40
2022-12-08T22:11:05.692Z,8.20
2022-12-08T22:13:36.624Z,9.43
2022-12-08T22:16:06.172Z,8.82
2022-12-08T22:18:33.873Z,7.75
2022-12-08T22:21:00.557Z,9.35
2022-12-08T22:23:28.372Z,7.38
2022-12-08T22:26:02.581Z,8.32
2022-12-08T22:28:32.723Z,7.30
2022-12-08T22:30:59.664Z,7.93
2022-12-08T22:33:29.015Z,7.28
2022-12-08T22:36:06.346Z,7.13
2022-12-08T22:38:36.577Z,5.97
2022-12-08T22:41:05.623Z,7.32
2022-12-08T22:43:32.710Z,7.10
2022-12-08T22:50:59.720Z,6.32
2022-12-08T22:53:26.523Z,7.00
2022-12-08T22:55:53.424Z,6.88
2022-12-08T22:58:20.361Z,7.45
2022-12-08T23:03:13.605Z,7.20
2022-12-08T23:05:40.706Z,7.18
2022-12-08T23:08:08.856Z,7.38
2022-12-08T23:10:36.300Z,7.65
2022-12-08T23:13:04.222Z,8.07
2022-12-08T23:15:31.575Z,6.75
2022-12-08T23:22:51.305Z,6.35
2022-12-08T23:25:18.523Z,6.63
2022-12-08T23:27:46.039Z,7.28
2022-12-08T23:30:13.697Z,7.82
2022-12-08T23:32:40.412Z,6.32
2022-12-08T23:35:07.966Z,7.50
2022-12-08T23:37:34.507Z,6.63
2022-12-08T23:40:01.074Z,7.07
2022-12-08T23:42:32.332Z,8.73
2022-12-08T23:45:04.324Z,7.88
2022-12-08T23:50:14.040Z,7.72
2022-12-08T23:52:40.644Z,7.85
2022-12-08T23:55:07.858Z,8.98
2022-12-08T23:57:38.525Z,9.40
